M I D A S
Marine Information and Data Acquisition System
Tripno 585 of the Zeeleeuw from 2003-09-08 06:55:49 to 2003-09-08 15:36:28
Back to CruiseResearch ActivitiesStationsMapUnderway DataData graphs

EquipmentUnitsComment
TimeDGPSUTC
LatitudeDGPSDM.mWGS84
LongitudeDGPSDM.mWGS84
HeadingGyrodeg 
SOGDGPSknotsSpeed over ground
COGDGPSdegCourse over ground
DepthEcho soundermeters200 kHz
Missing or incorrect values are displayed as -999
Navigation data collected by the RV Zeeleeuw from 2003-09-08 06:55:49 to 2003-09-08 15:36:28
                                                                                    Next 1000 lines
Time Latitude Longitude Heading SOG COG Depth
2003-09-08 06:55:57 51°13.74 2°55.71 334.3 3.3 330 10.7
2003-09-08 06:56:01 51°13.75 2°55.71 333.8 3.6 330 10.5
2003-09-08 06:56:05 51°13.75 2°55.71 333.8 4 329 10.9
2003-09-08 06:56:11 51°13.76 2°55.7 333.8 4.2 330 10.8
2003-09-08 06:56:15 51°13.76 2°55.7 333.8 4.5 329 10.6
2003-09-08 06:56:21 51°13.77 2°55.69 334 4.8 329 10.9
2003-09-08 06:56:25 51°13.77 2°55.68 334.5 5 330 10.9
2003-09-08 06:56:31 51°13.78 2°55.68 335.3 5.2 331 10.9
2003-09-08 06:56:35 51°13.78 2°55.67 335.8 5.4 331 10.8
2003-09-08 06:56:41 51°13.79 2°55.67 336.3 5.8 332 11.1
2003-09-08 06:56:45 51°13.8 2°55.66 336.8 6.2 333 11
2003-09-08 06:56:51 51°13.81 2°55.65 337.5 6.4 333 11.1
2003-09-08 06:56:55 51°13.82 2°55.65 338.2 6.7 334 11.1
2003-09-08 06:57:01 51°13.83 2°55.64 339 7 335 11
2003-09-08 06:57:05 51°13.83 2°55.64 339.1 7.2 335 10.9
2003-09-08 06:57:11 51°13.84 2°55.63 338.9 7.4 334 10.4
2003-09-08 06:57:15 51°13.85 2°55.62 339 7.6 335 10.7
2003-09-08 06:57:21 51°13.86 2°55.61 339.9 7.7 336 10.8
2003-09-08 06:57:27 51°13.88 2°55.6 339.9 7.9 335 10.7
2003-09-08 06:57:31 51°13.88 2°55.6 339.5 7.9 335 10.8
2003-09-08 06:57:35 51°13.89 2°55.59 339.6 8 335 10.9
2003-09-08 06:57:41 51°13.9 2°55.58 340 8.1 335 11
2003-09-08 06:57:45 51°13.91 2°55.58 339.8 8.2 335 11
2003-09-08 06:57:51 51°13.92 2°55.57 339.6 8.3 335 10.9
2003-09-08 06:57:55 51°13.93 2°55.56 339.6 8.3 335 11
2003-09-08 06:58:01 51°13.94 2°55.55 339.7 8.4 335 11
2003-09-08 06:58:07 51°13.96 2°55.54 339.4 8.4 335 10.9
2003-09-08 06:58:11 51°13.97 2°55.54 339.6 8.4 335 10.9
2003-09-08 06:58:15 51°13.97 2°55.53 339.7 8.5 335 10.8
2003-09-08 06:58:21 51°13.99 2°55.52 339.8 8.5 335 10.8
2003-09-08 06:58:25 51°14 2°55.51 339.9 8.5 336 10.7
2003-09-08 06:58:31 51°14.01 2°55.5 339.5 8.6 334 10.6
2003-09-08 06:58:35 51°14.02 2°55.5 339.4 8.6 335 10.6
2003-09-08 06:58:41 51°14.03 2°55.49 340.2 8.6 335 10.6
2003-09-08 06:58:47 51°14.04 2°55.48 340.7 8.6 335 10.7
2003-09-08 06:58:51 51°14.05 2°55.47 340.6 8.6 335 10.6
2003-09-08 06:58:55 51°14.06 2°55.47 340 8.6 335 10.5
2003-09-08 06:59:01 51°14.07 2°55.46 339.9 8.6 335 10.4
2003-09-08 06:59:05 51°14.08 2°55.45 339.7 8.6 335 10.5
2003-09-08 06:59:11 51°14.09 2°55.44 339.5 8.6 334 10.4
2003-09-08 06:59:15 51°14.1 2°55.43 339.3 8.6 334 10.5
2003-09-08 06:59:21 51°14.12 2°55.42 338.9 8.6 334 10.6
2003-09-08 06:59:25 51°14.12 2°55.42 338.2 8.6 333 10.6
2003-09-08 06:59:31 51°14.14 2°55.41 337.6 8.6 332 10.7
2003-09-08 06:59:35 51°14.14 2°55.4 336.5 8.6 332 10.7
2003-09-08 06:59:41 51°14.16 2°55.39 335.1 8.6 330 10.8
2003-09-08 06:59:47 51°14.17 2°55.38 333.8 8.6 329 11.4
2003-09-08 06:59:51 51°14.18 2°55.37 332.6 8.6 328 11
2003-09-08 06:59:55 51°14.19 2°55.36 331.5 8.6 326 11
2003-09-08 07:00:01 51°14.2 2°55.35 330.1 8.5 325 10.9
2003-09-08 07:00:05 51°14.2 2°55.34 328.6 8.5 323 10.9
2003-09-08 07:00:11 51°14.22 2°55.32 327.1 8.5 322 10.9
2003-09-08 07:00:15 51°14.22 2°55.31 325.6 8.5 320 11
2003-09-08 07:00:21 51°14.23 2°55.3 324 8.5 319 11
2003-09-08 07:00:27 51°14.24 2°55.28 322.7 8.5 317 11.2
2003-09-08 07:00:31 51°14.25 2°55.27 321.2 8.5 316 11.5
2003-09-08 07:00:35 51°14.26 2°55.26 319.7 8.5 315 11.2
2003-09-08 07:00:41 51°14.27 2°55.25 318.5 8.5 314 11.3
2003-09-08 07:00:45 51°14.27 2°55.24 317.9 8.5 313 11.3
2003-09-08 07:00:51 51°14.28 2°55.22 317.2 8.5 313 11
2003-09-08 07:00:55 51°14.29 2°55.21 316.4 8.6 312 11
2003-09-08 07:01:01 51°14.3 2°55.19 315.5 8.6 311 11.1
2003-09-08 07:01:05 51°14.31 2°55.18 315 8.6 310 11.1
2003-09-08 07:01:11 51°14.32 2°55.16 314.6 8.6 310 10.9
2003-09-08 07:01:15 51°14.32 2°55.15 313.6 8.6 309 11.2
2003-09-08 07:01:21 51°14.33 2°55.13 312.8 8.6 308 11.2
2003-09-08 07:01:25 51°14.34 2°55.12 312.2 8.6 308 11.2
2003-09-08 07:01:31 51°14.34 2°55.1 311.9 8.6 308 11.3
2003-09-08 07:01:35 51°14.35 2°55.09 311.7 8.6 308 10.9
2003-09-08 07:01:41 51°14.36 2°55.07 312.8 8.6 309 11.1
2003-09-08 07:01:45 51°14.37 2°55.06 314.4 8.6 311 11.4
2003-09-08 07:01:51 51°14.38 2°55.04 316.4 8.6 312 10.8
2003-09-08 07:01:55 51°14.38 2°55.03 318.8 8.6 314 11.2
2003-09-08 07:02:01 51°14.39 2°55.02 321.3 8.6 317 10.5
2003-09-08 07:02:07 51°14.4 2°55 323.7 8.5 319 10.5
2003-09-08 07:02:11 51°14.41 2°54.99 326.1 8.5 321 11.1
2003-09-08 07:02:15 51°14.42 2°54.98 328.4 8.5 323 10.2
2003-09-08 07:02:21 51°14.43 2°54.97 330.8 8.8 326 10.6
2003-09-08 07:02:25 51°14.44 2°54.96 333.1 9.2 328 10
2003-09-08 07:02:31 51°14.45 2°54.95 335.2 9.4 328 10
2003-09-08 07:02:35 51°14.46 2°54.94 335.5 9.8 328 9.9
2003-09-08 07:02:41 51°14.47 2°54.93 335.5 10 328 9.8
2003-09-08 07:02:47 51°14.49 2°54.91 335.4 10.2 327 9.9
2003-09-08 07:02:51 51°14.5 2°54.9 335.2 10.3 327 9.8
2003-09-08 07:02:55 51°14.51 2°54.89 334.9 10.5 327 9.7
2003-09-08 07:03:01 51°14.52 2°54.88 334.6 10.6 326 9.7
2003-09-08 07:03:07 51°14.54 2°54.86 334.3 10.8 326 9.7
2003-09-08 07:03:11 51°14.55 2°54.85 334.2 10.8 326 9.7
2003-09-08 07:03:15 51°14.56 2°54.84 334.1 10.9 326 9.7
2003-09-08 07:03:21 51°14.57 2°54.82 334.1 10.9 326 9.7
2003-09-08 07:03:25 51°14.58 2°54.81 334.1 11 325 9.6
2003-09-08 07:03:31 51°14.6 2°54.79 333.8 11 325 9.6
2003-09-08 07:03:35 51°14.61 2°54.78 333.7 11.1 325 9.5
2003-09-08 07:03:41 51°14.62 2°54.77 333.8 11.2 325 9.6
2003-09-08 07:03:47 51°14.64 2°54.75 334.1 11.4 325 9.6
2003-09-08 07:03:51 51°14.65 2°54.74 334.5 11.5 325 9.5
2003-09-08 07:03:55 51°14.66 2°54.73 334.5 11.8 326 9.5
2003-09-08 07:04:01 51°14.68 2°54.71 334.7 12 326 9.5
2003-09-08 07:04:05 51°14.69 2°54.7 334.8 12.3 326 9.5
2003-09-08 07:04:11 51°14.7 2°54.68 335.2 12.3 326 9.4
2003-09-08 07:04:15 51°14.72 2°54.67 335.3 12.3 326 9.5
2003-09-08 07:04:21 51°14.73 2°54.65 335.3 12.5 326 9.4
2003-09-08 07:04:27 51°14.75 2°54.63 335.3 12.6 326 9.3
2003-09-08 07:04:31 51°14.76 2°54.62 335.3 12.7 326 9.3
2003-09-08 07:04:35 51°14.77 2°54.6 335.2 12.7 326 9.4
2003-09-08 07:04:41 51°14.79 2°54.58 335.2 12.7 326 9.2
2003-09-08 07:04:45 51°14.8 2°54.57 335.3 12.8 327 9.2
2003-09-08 07:04:51 51°14.82 2°54.55 335.6 12.8 327 9.2
2003-09-08 07:04:55 51°14.83 2°54.54 336 12.8 327 9.2
2003-09-08 07:05:01 51°14.85 2°54.52 336.2 12.8 327 9.1
2003-09-08 07:05:07 51°14.87 2°54.5 336.5 12.8 328 9.2
2003-09-08 07:05:11 51°14.88 2°54.49 336.7 12.8 328 9.1
2003-09-08 07:05:15 51°14.89 2°54.48 337 12.8 328 9.1
2003-09-08 07:05:21 51°14.91 2°54.46 336 12.8 325 8.8
2003-09-08 07:05:27 51°14.93 2°54.44 332.3 12.7 320 8.7
2003-09-08 07:05:31 51°14.94 2°54.42 327.8 12.7 316 8.7
2003-09-08 07:05:35 51°14.95 2°54.41 323.1 12.7 310 8.6
2003-09-08 07:05:41 51°14.96 2°54.38 317.9 12.8 306 8.5
2003-09-08 07:05:45 51°14.97 2°54.36 312.5 12.8 299 8.5
2003-09-08 07:05:51 51°14.98 2°54.33 307.7 12.8 296 8.5
2003-09-08 07:05:57 51°14.98 2°54.3 304.1 12.9 293 8.5
2003-09-08 07:06:01 51°14.99 2°54.28 301.8 13 292 8.5
2003-09-08 07:06:05 51°14.99 2°54.26 300 13.1 290 8.5
2003-09-08 07:06:11 51°15 2°54.22 298.3 13.1 289 8.5
2003-09-08 07:06:15 51°15.01 2°54.2 296.8 13.2 287 8.6
2003-09-08 07:06:21 51°15.01 2°54.17 295.7 13.2 287 8.7
2003-09-08 07:06:25 51°15.02 2°54.15 294.4 13.3 285 8.7
2003-09-08 07:06:31 51°15.02 2°54.11 293.7 13.4 285 8.8
2003-09-08 07:06:35 51°15.03 2°54.09 293.4 13.4 285 8.8
2003-09-08 07:06:41 51°15.03 2°54.05 293.6 13.4 285 8.9
2003-09-08 07:06:47 51°15.04 2°54.02 294.1 13.3 287 8.9
2003-09-08 07:06:51 51°15.04 2°54 295 13.4 287 9
2003-09-08 07:06:55 51°15.05 2°53.97 295.8 13.5 287 9.1
2003-09-08 07:07:01 51°15.05 2°53.94 296.2 13.4 288 9.2
2003-09-08 07:07:07 51°15.06 2°53.91 295.3 13.5 286 9.3
2003-09-08 07:07:11 51°15.06 2°53.88 293.7 13.5 285 9.6
2003-09-08 07:07:15 51°15.07 2°53.86 292.2 13.5 283 9.6
2003-09-08 07:07:21 51°15.07 2°53.82 290.7 13.6 282 9.6
2003-09-08 07:07:27 51°15.08 2°53.79 289.7 13.6 281 9.6
2003-09-08 07:07:31 51°15.08 2°53.77 288.9 13.6 281 9.6
2003-09-08 07:07:35 51°15.08 2°53.74 288.6 13.6 281 9.5
2003-09-08 07:07:41 51°15.09 2°53.71 288.6 13.6 281 9.7
2003-09-08 07:07:45 51°15.09 2°53.68 288.5 13.6 281 9.6
2003-09-08 07:07:51 51°15.09 2°53.65 288.7 13.6 281 9.5
2003-09-08 07:07:57 51°15.1 2°53.61 289.2 13.6 282 9.6
2003-09-08 07:08:01 51°15.1 2°53.59 289.9 13.6 282 9.6
2003-09-08 07:08:05 51°15.1 2°53.57 290.3 13.6 283 9.6
2003-09-08 07:08:11 51°15.11 2°53.53 290.9 13.5 283 9.7
2003-09-08 07:08:15 51°15.11 2°53.51 291 13.5 283 9.7
2003-09-08 07:08:21 51°15.12 2°53.47 291.1 13.6 283 9.8
2003-09-08 07:08:27 51°15.12 2°53.44 291 13.6 283 9.8
2003-09-08 07:08:31 51°15.13 2°53.41 290.8 13.6 282 9.8
2003-09-08 07:08:35 51°15.13 2°53.39 290.4 13.6 282 10
2003-09-08 07:08:41 51°15.13 2°53.36 289.8 13.6 281 10
2003-09-08 07:08:45 51°15.14 2°53.33 289.3 13.6 281 10.1
2003-09-08 07:08:51 51°15.14 2°53.3 289 13.7 281 10.1
2003-09-08 07:08:55 51°15.14 2°53.27 288.8 13.7 281 10.3
2003-09-08 07:09:01 51°15.15 2°53.24 288.7 13.6 281 10.3
2003-09-08 07:09:07 51°15.15 2°53.2 289 13.7 281 10.2
2003-09-08 07:09:11 51°15.16 2°53.18 289.5 13.6 281 10.2
2003-09-08 07:09:15 51°15.16 2°53.15 289.7 13.6 282 10.1
2003-09-08 07:09:21 51°15.16 2°53.12 289.8 13.6 282 10.2
2003-09-08 07:09:25 51°15.17 2°53.09 289.7 13.6 281 10.5
2003-09-08 07:09:31 51°15.17 2°53.06 289.6 13.6 281 10.5
2003-09-08 07:09:35 51°15.17 2°53.04 289.6 13.7 281 10.6
2003-09-08 07:09:41 51°15.18 2°53 289.6 13.7 281 10.5
2003-09-08 07:09:47 51°15.18 2°52.96 289.7 13.7 282 10.6
2003-09-08 07:09:51 51°15.19 2°52.94 289.8 13.7 282 10.4
2003-09-08 07:09:55 51°15.19 2°52.92 289.9 13.7 282 10.7
2003-09-08 07:10:01 51°15.19 2°52.88 290.1 13.6 282 10.8
2003-09-08 07:10:07 51°15.2 2°52.85 290.1 13.7 282 10.8
2003-09-08 07:10:11 51°15.2 2°52.82 290.1 13.7 282 10.8
2003-09-08 07:10:15 51°15.21 2°52.8 290.3 13.7 282 11
2003-09-08 07:10:21 51°15.21 2°52.76 290.3 13.6 282 11
2003-09-08 07:10:25 51°15.21 2°52.74 290.3 13.7 282 11.1
2003-09-08 07:10:31 51°15.22 2°52.7 290.3 13.6 282 11.2
2003-09-08 07:10:35 51°15.22 2°52.68 290.3 13.7 282 11.1
2003-09-08 07:10:41 51°15.23 2°52.64 290.3 13.6 282 11.3
2003-09-08 07:10:47 51°15.23 2°52.61 290.3 13.6 282 11.3
2003-09-08 07:10:51 51°15.23 2°52.59 290.1 13.6 282 11.3
2003-09-08 07:10:55 51°15.24 2°52.56 289.9 13.7 281 11.3
2003-09-08 07:11:01 51°15.24 2°52.53 289.5 13.7 281 11.4
2003-09-08 07:11:05 51°15.24 2°52.5 288.1 13.7 279 11.4
2003-09-08 07:11:11 51°15.25 2°52.47 286.9 13.7 278 11.4
2003-09-08 07:11:15 51°15.25 2°52.44 285.9 13.7 278 11.5
2003-09-08 07:11:21 51°15.25 2°52.41 285.4 13.8 277 11.5
2003-09-08 07:11:27 51°15.25 2°52.37 285.1 13.8 277 11.6
2003-09-08 07:11:31 51°15.26 2°52.35 284.7 13.8 277 11.6
2003-09-08 07:11:35 51°15.26 2°52.32 285 13.8 277 11.6
2003-09-08 07:11:41 51°15.26 2°52.29 285.4 13.8 278 11.7
2003-09-08 07:11:45 51°15.26 2°52.26 285.9 13.7 278 11.7
2003-09-08 07:11:51 51°15.27 2°52.23 286.5 13.7 279 11.7
2003-09-08 07:11:55 51°15.27 2°52.2 286.6 13.7 279 11.8
2003-09-08 07:12:01 51°15.27 2°52.17 286.6 13.7 278 11.9
2003-09-08 07:12:05 51°15.27 2°52.14 286.4 13.7 278 12
2003-09-08 07:12:11 51°15.28 2°52.11 285.9 13.8 277 11.8
2003-09-08 07:12:15 51°15.28 2°52.08 285.5 13.7 277 12
2003-09-08 07:12:21 51°15.28 2°52.05 285.3 13.7 277 12
2003-09-08 07:12:27 51°15.29 2°52.01 285.3 13.7 278 12.1
2003-09-08 07:12:31 51°15.29 2°51.99 285.7 13.7 278 12.1
2003-09-08 07:12:35 51°15.29 2°51.96 286.2 13.7 278 12.1
2003-09-08 07:12:41 51°15.29 2°51.93 286.3 13.7 278 12.2
2003-09-08 07:12:45 51°15.3 2°51.9 286.3 13.7 278 12.2
2003-09-08 07:12:51 51°15.3 2°51.87 286.3 13.7 278 12.3
2003-09-08 07:12:55 51°15.3 2°51.84 286.3 13.7 278 12.3
2003-09-08 07:13:01 51°15.3 2°51.81 286.5 13.7 278 12.3
2003-09-08 07:13:07 51°15.31 2°51.77 286.5 13.7 278 12.3
2003-09-08 07:13:11 51°15.31 2°51.75 285.9 13.7 277 12.4
2003-09-08 07:13:15 51°15.31 2°51.72 284.4 13.7 275 12.4
2003-09-08 07:13:21 51°15.31 2°51.69 283 13.8 275 12.4
2003-09-08 07:13:25 51°15.31 2°51.66 282.1 13.8 274 12.4
2003-09-08 07:13:31 51°15.31 2°51.63 281.5 13.8 273 12.6
2003-09-08 07:13:35 51°15.32 2°51.6 281.2 13.9 273 12.6
2003-09-08 07:13:41 51°15.32 2°51.56 281.3 13.9 274 12.6
2003-09-08 07:13:47 51°15.32 2°51.53 281.7 13.9 274 12.6
2003-09-08 07:13:51 51°15.32 2°51.5 281.7 13.9 273 12.5
2003-09-08 07:13:55 51°15.32 2°51.48 281.7 13.9 274 12.6
2003-09-08 07:14:01 51°15.32 2°51.44 281.7 14 273 12.6
2003-09-08 07:14:05 51°15.32 2°51.42 281.6 13.9 274 12.6
2003-09-08 07:14:11 51°15.32 2°51.38 281.4 13.9 273 12.7
2003-09-08 07:14:15 51°15.33 2°51.36 281.2 13.9 274 12.7
2003-09-08 07:14:21 51°15.33 2°51.32 281.3 13.9 274 12.6
2003-09-08 07:14:25 51°15.33 2°51.29 281.6 13.8 274 12.7
2003-09-08 07:14:31 51°15.33 2°51.26 280.6 13.8 273 12.8
2003-09-08 07:14:35 51°15.33 2°51.23 279 13.9 270 12.7
2003-09-08 07:14:41 51°15.33 2°51.2 276.5 13.8 269 12.7
2003-09-08 07:14:47 51°15.33 2°51.16 275 13.9 267 12.9
2003-09-08 07:14:51 51°15.33 2°51.14 273.8 13.9 267 12.8
2003-09-08 07:14:55 51°15.33 2°51.11 273.2 13.9 266 12.9
2003-09-08 07:15:01 51°15.32 2°51.07 272.9 13.9 266 13
2003-09-08 07:15:05 51°15.32 2°51.05 272.9 13.9 266 12.9
2003-09-08 07:15:11 51°15.32 2°51.01 272.9 13.8 267 12.9
2003-09-08 07:15:15 51°15.32 2°50.99 273.3 13.8 267 13
2003-09-08 07:15:21 51°15.32 2°50.95 273.5 13.8 267 13
2003-09-08 07:15:25 51°15.32 2°50.93 273.6 13.7 267 13
2003-09-08 07:15:31 51°15.32 2°50.89 273.6 13.7 267 12.9
2003-09-08 07:15:35 51°15.32 2°50.87 273.6 13.7 267 13
2003-09-08 07:15:41 51°15.31 2°50.83 273.5 13.7 267 13
2003-09-08 07:15:47 51°15.31 2°50.8 273.4 13.8 266 13
2003-09-08 07:15:51 51°15.31 2°50.77 273.2 13.7 266 13.1
2003-09-08 07:15:55 51°15.31 2°50.75 271.4 13.7 264 13
2003-09-08 07:16:01 51°15.31 2°50.71 270 13.7 263 13
2003-09-08 07:16:07 51°15.3 2°50.68 268.7 13.7 262 13.1
2003-09-08 07:16:11 51°15.3 2°50.65 267.9 13.8 261 13
2003-09-08 07:16:15 51°15.3 2°50.63 267.5 13.7 261 13.1
2003-09-08 07:16:21 51°15.3 2°50.59 267 13.7 261 13.2
2003-09-08 07:16:27 51°15.29 2°50.56 266.9 13.8 261 13.1
2003-09-08 07:16:31 51°15.29 2°50.53 266.6 13.8 260 13.1
2003-09-08 07:16:35 51°15.29 2°50.51 266.5 13.8 261 13.1
2003-09-08 07:16:41 51°15.28 2°50.47 266.5 13.8 260 13.1
2003-09-08 07:16:47 51°15.28 2°50.44 266.7 13.8 261 13.2
2003-09-08 07:16:51 51°15.28 2°50.41 266.9 13.8 261 13.1
2003-09-08 07:16:55 51°15.27 2°50.39 267.2 13.8 261 13.1
2003-09-08 07:17:01 51°15.27 2°50.35 267.7 13.8 262 13.2
2003-09-08 07:17:07 51°15.27 2°50.32 267.8 13.8 262 13.1
2003-09-08 07:17:11 51°15.27 2°50.29 268.1 13.8 262 13.2
2003-09-08 07:17:15 51°15.26 2°50.27 268.3 13.8 262 13.2
2003-09-08 07:17:21 51°15.26 2°50.23 268 13.8 261 13.1
2003-09-08 07:17:25 51°15.26 2°50.21 267.7 13.8 261 13.2
2003-09-08 07:17:31 51°15.25 2°50.17 267.3 13.9 261 13.1
2003-09-08 07:17:35 51°15.25 2°50.15 267 13.8 261 13.3
2003-09-08 07:17:41 51°15.25 2°50.11 266.9 13.8 261 13.2
2003-09-08 07:17:47 51°15.24 2°50.07 266.9 13.9 261 13.3
2003-09-08 07:17:51 51°15.24 2°50.05 267.5 13.9 262 13.3
2003-09-08 07:17:55 51°15.24 2°50.02 267.8 13.8 262 13.2
2003-09-08 07:18:01 51°15.24 2°49.99 268.3 13.8 262 13.2
2003-09-08 07:18:07 51°15.23 2°49.95 268.2 13.8 262 13.2
2003-09-08 07:18:11 51°15.23 2°49.93 268.2 13.8 262 13.2
2003-09-08 07:18:15 51°15.23 2°49.9 267.8 13.8 261 13.3
2003-09-08 07:18:21 51°15.23 2°49.87 267.6 13.8 261 13.3
2003-09-08 07:18:27 51°15.22 2°49.83 267.5 13.8 262 13.1
2003-09-08 07:18:31 51°15.22 2°49.81 267.6 13.8 261 13.2
2003-09-08 07:18:35 51°15.22 2°49.78 267.8 13.8 262 13.1
2003-09-08 07:18:41 51°15.21 2°49.75 267.9 13.8 262 13.2
2003-09-08 07:18:47 51°15.21 2°49.71 268.3 13.8 263 13.1
2003-09-08 07:18:51 51°15.21 2°49.69 268.5 13.8 262 13.2
2003-09-08 07:18:55 51°15.21 2°49.66 268.2 13.8 262 13.1
2003-09-08 07:19:01 51°15.2 2°49.63 267.9 13.7 261 13.1
2003-09-08 07:19:05 51°15.2 2°49.6 267.8 13.8 262 13.2
2003-09-08 07:19:11 51°15.2 2°49.57 267.8 13.7 261 13.1
2003-09-08 07:19:15 51°15.2 2°49.54 267.8 13.7 261 13.2
2003-09-08 07:19:21 51°15.19 2°49.51 267.6 13.7 261 13.1
2003-09-08 07:19:27 51°15.19 2°49.47 267.4 13.7 261 13.1
2003-09-08 07:19:31 51°15.19 2°49.45 267.5 13.7 261 13.2
2003-09-08 07:19:37 51°15.18 2°49.41 267.8 13.7 262 13.1
2003-09-08 07:19:41 51°15.18 2°49.39 268.1 13.7 262 13.1
2003-09-08 07:19:45 51°15.18 2°49.36 268.5 13.7 263 13.1
2003-09-08 07:19:51 51°15.18 2°49.33 268.7 13.7 262 13.1
2003-09-08 07:19:55 51°15.17 2°49.3 268.7 13.7 262 13.2
2003-09-08 07:20:01 51°15.17 2°49.27 268.4 13.7 262 13.1
2003-09-08 07:20:07 51°15.17 2°49.23 268 13.7 262 13.1
2003-09-08 07:20:11 51°15.17 2°49.21 267.8 13.7 262 13.2
2003-09-08 07:20:15 51°15.16 2°49.18 267.8 13.8 262 13
2003-09-08 07:20:21 51°15.16 2°49.15 267.9 13.8 262 13.2
2003-09-08 07:20:25 51°15.16 2°49.12 268.2 13.7 262 13.2
2003-09-08 07:20:31 51°15.15 2°49.09 268.4 13.8 262 13.2
2003-09-08 07:20:35 51°15.15 2°49.06 268.3 13.7 262 13.1
2003-09-08 07:20:41 51°15.15 2°49.03 268.3 13.7 262 13.1
2003-09-08 07:20:45 51°15.15 2°49 268.3 13.7 262 13.1
2003-09-08 07:20:51 51°15.14 2°48.97 268.3 13.7 262 13.2
2003-09-08 07:20:55 51°15.14 2°48.94 268.3 13.7 262 13.2
2003-09-08 07:21:01 51°15.14 2°48.91 268.3 13.7 262 13.1
2003-09-08 07:21:05 51°15.14 2°48.88 268.3 13.7 262 13
2003-09-08 07:21:11 51°15.13 2°48.85 268.4 13.7 262 13.2
2003-09-08 07:21:15 51°15.13 2°48.82 268.5 13.7 262 13.1
2003-09-08 07:21:21 51°15.13 2°48.79 268.5 13.7 262 13.1
2003-09-08 07:21:25 51°15.13 2°48.76 268.4 13.7 262 13.2
2003-09-08 07:21:31 51°15.12 2°48.73 268.2 13.7 262 13.2
2003-09-08 07:21:35 51°15.12 2°48.7 268.3 13.7 262 13.2
2003-09-08 07:21:41 51°15.12 2°48.67 268.4 13.7 262 13.3
2003-09-08 07:21:47 51°15.11 2°48.63 268.3 13.7 262 13.3
2003-09-08 07:21:51 51°15.11 2°48.61 268.1 13.7 262 13.1
2003-09-08 07:21:55 51°15.11 2°48.58 268 13.6 262 13.2
2003-09-08 07:22:01 51°15.11 2°48.55 267.8 13.7 261 13.2
2003-09-08 07:22:05 51°15.1 2°48.52 267.6 13.7 261 13.2
2003-09-08 07:22:11 51°15.1 2°48.49 267.5 13.7 261 13.2
2003-09-08 07:22:15 51°15.1 2°48.46 267.5 13.7 261 13.3
2003-09-08 07:22:21 51°15.1 2°48.43 267.4 13.7 261 13.3
2003-09-08 07:22:27 51°15.09 2°48.39 267.4 13.7 261 13.3
2003-09-08 07:22:31 51°15.09 2°48.37 267.8 13.7 262 13.4
2003-09-08 07:22:35 51°15.09 2°48.34 268 13.7 262 13.3
2003-09-08 07:22:41 51°15.08 2°48.31 268 13.7 262 13.3
2003-09-08 07:22:45 51°15.08 2°48.28 268.2 13.7 262 13.3
2003-09-08 07:22:51 51°15.08 2°48.25 268.3 13.7 262 13.3
2003-09-08 07:22:57 51°15.08 2°48.21 268.4 13.7 262 13.3
2003-09-08 07:23:01 51°15.07 2°48.19 268.4 13.7 262 13.3
2003-09-08 07:23:07 51°15.07 2°48.15 268.5 13.7 262 13.3
2003-09-08 07:23:11 51°15.07 2°48.13 268.4 13.7 262 13.3
2003-09-08 07:23:15 51°15.07 2°48.1 268.3 13.7 262 13.2
2003-09-08 07:23:21 51°15.06 2°48.07 268.3 13.7 262 13.3
2003-09-08 07:23:27 51°15.06 2°48.03 268.1 13.6 262 13.2
2003-09-08 07:23:31 51°15.06 2°48.01 268 13.6 262 13.3
2003-09-08 07:23:35 51°15.06 2°47.98 268 13.7 262 13.2
2003-09-08 07:23:41 51°15.05 2°47.95 267.8 13.7 262 13.1
2003-09-08 07:23:45 51°15.05 2°47.92 267.8 13.7 262 13.1
2003-09-08 07:23:51 51°15.05 2°47.89 268.2 13.7 262 13.1
2003-09-08 07:23:55 51°15.05 2°47.86 268.4 13.7 262 13
2003-09-08 07:24:01 51°15.04 2°47.83 268.5 13.6 263 12.9
2003-09-08 07:24:07 51°15.04 2°47.79 268.5 13.6 262 12.7
2003-09-08 07:24:11 51°15.04 2°47.77 268.5 13.6 262 12.6
2003-09-08 07:24:15 51°15.04 2°47.75 268.5 13.6 262 12.5
2003-09-08 07:24:21 51°15.03 2°47.71 268.5 13.6 262 12.3
2003-09-08 07:24:25 51°15.03 2°47.69 268.5 13.6 262 12.1
2003-09-08 07:24:31 51°15.03 2°47.65 268.4 13.6 262 11.8
2003-09-08 07:24:35 51°15.03 2°47.63 268.3 13.6 262 11.7
2003-09-08 07:24:41 51°15.02 2°47.59 268.2 13.6 262 11.6
2003-09-08 07:24:47 51°15.02 2°47.56 268.1 13.6 262 11.4
2003-09-08 07:24:51 51°15.02 2°47.53 268 13.6 262 11.6
2003-09-08 07:24:55 51°15.01 2°47.51 267.8 13.5 262 11.2
2003-09-08 07:25:01 51°15.01 2°47.47 267.8 13.5 262 11
2003-09-08 07:25:05 51°15.01 2°47.45 267.7 13.5 262 11.1
2003-09-08 07:25:11 51°15.01 2°47.41 267.8 13.5 262 10.6
2003-09-08 07:25:15 51°15 2°47.39 268.1 13.5 262 10.4
2003-09-08 07:25:21 51°15 2°47.35 268.2 13.5 262 10.7
2003-09-08 07:25:27 51°15 2°47.32 268.2 13.5 262 10.1
2003-09-08 07:25:31 51°15 2°47.3 267.8 13.4 262 10.5
2003-09-08 07:25:35 51°14.99 2°47.27 267.8 13.4 262 10.4
2003-09-08 07:25:41 51°14.99 2°47.24 267.9 13.5 262 10.2
2003-09-08 07:25:47 51°14.99 2°47.2 268.1 13.5 262 9.9
2003-09-08 07:25:51 51°14.99 2°47.18 268.1 13.4 262 9.8
2003-09-08 07:25:55 51°14.98 2°47.15 268.2 13.4 262 9.8
2003-09-08 07:26:01 51°14.98 2°47.12 268.1 13.4 262 9.8
2003-09-08 07:26:05 51°14.98 2°47.09 268.1 13.4 262 9.7
2003-09-08 07:26:11 51°14.97 2°47.06 267.7 13.4 262 9.6
2003-09-08 07:26:15 51°14.97 2°47.04 267.9 13.4 262 10.1
2003-09-08 07:26:21 51°14.97 2°47 268.4 13.4 263 9.5
2003-09-08 07:26:25 51°14.97 2°46.98 268.5 13.4 263 9.4
2003-09-08 07:26:31 51°14.97 2°46.94 269 13.4 263 9.6
2003-09-08 07:26:35 51°14.96 2°46.92 269.1 13.4 263 9.4
2003-09-08 07:26:41 51°14.96 2°46.88 269.3 13.4 264 9.4
2003-09-08 07:26:47 51°14.96 2°46.85 269.5 13.5 263 9.5
2003-09-08 07:26:51 51°14.96 2°46.82 269.2 13.4 263 9.5
2003-09-08 07:26:55 51°14.95 2°46.8 269 13.4 263 9.3
2003-09-08 07:27:01 51°14.95 2°46.76 268.7 13.4 263 9.4
2003-09-08 07:27:07 51°14.95 2°46.73 268.7 13.5 263 9.6
2003-09-08 07:27:11 51°14.95 2°46.71 268.5 13.5 262 9.4
2003-09-08 07:27:15 51°14.94 2°46.68 268.3 13.5 262 9.3
2003-09-08 07:27:21 51°14.94 2°46.65 268 13.5 262 9.4
2003-09-08 07:27:27 51°14.94 2°46.61 267.9 13.5 262 9.5
2003-09-08 07:27:31 51°14.94 2°46.59 267.9 13.5 262 9.6
2003-09-08 07:27:35 51°14.93 2°46.56 268 13.5 262 9.5
2003-09-08 07:27:41 51°14.93 2°46.53 268.5 13.5 263 9.6
2003-09-08 07:27:45 51°14.93 2°46.5 269.2 13.5 264 9.6
2003-09-08 07:27:51 51°14.93 2°46.47 269.7 13.5 264 9.6
2003-09-08 07:27:55 51°14.93 2°46.44 270 13.5 264 9.7
2003-09-08 07:28:01 51°14.93 2°46.41 270 13.5 264 9.8
2003-09-08 07:28:07 51°14.92 2°46.37 270 13.5 263 9.8
2003-09-08 07:28:11 51°14.92 2°46.35 269.5 13.6 263 10
2003-09-08 07:28:15 51°14.92 2°46.33 269.3 13.5 263 10
2003-09-08 07:28:21 51°14.92 2°46.29 268.8 13.5 263 10.1
2003-09-08 07:28:25 51°14.91 2°46.27 268.4 13.5 262 10.1
2003-09-08 07:28:31 51°14.91 2°46.23 268.2 13.6 262 10.2
2003-09-08 07:28:35 51°14.91 2°46.21 268.2 13.6 262 10.2
2003-09-08 07:28:41 51°14.91 2°46.17 268 13.6 263 10.4
2003-09-08 07:28:47 51°14.9 2°46.14 268.2 13.6 262 10.5
2003-09-08 07:28:51 51°14.9 2°46.11 268.4 13.6 263 10.7
2003-09-08 07:28:55 51°14.9 2°46.09 268.7 13.6 263 10.8
2003-09-08 07:29:01 51°14.9 2°46.05 268.9 13.6 263 10.9
2003-09-08 07:29:05 51°14.89 2°46.03 269.1 13.6 263 11.1
2003-09-08 07:29:11 51°14.89 2°45.99 269.1 13.6 263 11.2
2003-09-08 07:29:15 51°14.89 2°45.97 269 13.6 263 11.4
2003-09-08 07:29:21 51°14.89 2°45.93 268.8 13.7 263 11.4
2003-09-08 07:29:27 51°14.88 2°45.9 268.6 13.6 262 11.5
2003-09-08 07:29:31 51°14.88 2°45.87 268.2 13.6 262 11.7
2003-09-08 07:29:35 51°14.88 2°45.85 268 13.6 262 11.8
2003-09-08 07:29:41 51°14.88 2°45.81 267.8 13.7 261 11.9
2003-09-08 07:29:47 51°14.87 2°45.78 267.6 13.7 262 12
2003-09-08 07:29:51 51°14.87 2°45.75 267.8 13.7 262 12.1
2003-09-08 07:29:55 51°14.87 2°45.73 267.8 13.7 262 12.2
2003-09-08 07:30:01 51°14.86 2°45.69 268 13.7 262 12.3
2003-09-08 07:30:05 51°14.86 2°45.67 268.2 13.7 262 12.4
2003-09-08 07:30:11 51°14.86 2°45.63 268.4 13.7 262 12.5
2003-09-08 07:30:15 51°14.86 2°45.61 268.5 13.7 262 12.5
2003-09-08 07:30:21 51°14.85 2°45.57 268.5 13.7 262 12.8
2003-09-08 07:30:27 51°14.85 2°45.54 268.5 13.7 262 12.9
2003-09-08 07:30:31 51°14.85 2°45.51 268.6 13.7 262 13
2003-09-08 07:30:35 51°14.85 2°45.49 268.6 13.7 262 13.1
2003-09-08 07:30:41 51°14.84 2°45.45 268.4 13.7 262 13.2
2003-09-08 07:30:45 51°14.84 2°45.43 268.3 13.8 262 13.4
2003-09-08 07:30:51 51°14.84 2°45.39 268.3 13.7 262 13.5
2003-09-08 07:30:55 51°14.84 2°45.37 268.4 13.8 262 13.6
2003-09-08 07:31:01 51°14.83 2°45.33 268.6 13.8 263 13.8
2003-09-08 07:31:07 51°14.83 2°45.3 269 13.8 263 13.9
2003-09-08 07:31:11 51°14.83 2°45.27 269 13.8 263 13.9
2003-09-08 07:31:15 51°14.83 2°45.25 268.7 13.8 262 14
2003-09-08 07:31:21 51°14.82 2°45.21 268.3 13.7 262 14.3
2003-09-08 07:31:27 51°14.82 2°45.18 267.8 13.7 262 14.3
2003-09-08 07:31:31 51°14.82 2°45.15 267.7 13.8 261 14.4
2003-09-08 07:31:35 51°14.82 2°45.13 267.5 13.7 262 14.4
2003-09-08 07:31:41 51°14.81 2°45.09 267.8 13.7 262 14.5
2003-09-08 07:31:47 51°14.81 2°45.06 268 13.7 262 14.6
2003-09-08 07:31:51 51°14.81 2°45.03 268.5 13.7 263 14.6
2003-09-08 07:31:55 51°14.81 2°45.01 268.5 13.7 262 14.8
2003-09-08 07:32:01 51°14.8 2°44.97 268.4 13.7 262 14.9
2003-09-08 07:32:05 51°14.8 2°44.95 268 13.8 262 15.1
2003-09-08 07:32:11 51°14.8 2°44.91 267.7 13.8 262 15.2
2003-09-08 07:32:17 51°14.79 2°44.88 267.7 13.8 262 15.2
2003-09-08 07:32:21 51°14.79 2°44.85 267.8 13.8 262 15.3
2003-09-08 07:32:27 51°14.79 2°44.82 268.4 13.8 263 15.5
2003-09-08 07:32:31 51°14.79 2°44.79 268.3 13.8 262 15.4
2003-09-08 07:32:35 51°14.78 2°44.77 268 13.8 262 15.5
2003-09-08 07:32:41 51°14.78 2°44.73 267.5 13.8 261 15.5
2003-09-08 07:32:47 51°14.78 2°44.7 267.4 13.8 262 15.4
2003-09-08 07:32:51 51°14.78 2°44.67 267.4 13.8 261 15.5
2003-09-08 07:32:55 51°14.77 2°44.65 267.4 14 262 15.5
2003-09-08 07:33:01 51°14.77 2°44.61 267.6 14.1 262 15.6
2003-09-08 07:33:07 51°14.77 2°44.57 267.6 14.2 262 15.6
2003-09-08 07:33:11 51°14.76 2°44.55 267.6 14.3 262 15.8
2003-09-08 07:33:15 51°14.76 2°44.52 267.5 14.4 261 15.8
2003-09-08 07:33:21 51°14.76 2°44.49 267.2 14.4 261 15.9
2003-09-08 07:33:27 51°14.75 2°44.45 267.1 14.5 261 16
2003-09-08 07:33:31 51°14.75 2°44.42 267.1 14.5 261 16
2003-09-08 07:33:35 51°14.75 2°44.4 267.1 14.6 261 16.1
2003-09-08 07:33:41 51°14.75 2°44.36 267.2 14.6 262 16.1
2003-09-08 07:33:47 51°14.74 2°44.32 267.5 14.6 262 16.2
2003-09-08 07:33:51 51°14.74 2°44.29 268 14.6 262 16.3
2003-09-08 07:33:55 51°14.74 2°44.27 268.3 14.7 262 16.3
2003-09-08 07:34:01 51°14.73 2°44.23 268.7 14.6 263 16.4
2003-09-08 07:34:05 51°14.73 2°44.2 268.8 14.7 262 16.5
2003-09-08 07:34:11 51°14.73 2°44.17 268.4 14.6 262 16.5
2003-09-08 07:34:15 51°14.73 2°44.14 267.8 14.6 261 16.8
2003-09-08 07:34:21 51°14.72 2°44.1 267.5 14.6 262 16.7
2003-09-08 07:34:27 51°14.72 2°44.06 267.3 14.7 261 16.8
2003-09-08 07:34:31 51°14.72 2°44.04 267.6 14.7 262 16.6
2003-09-08 07:34:35 51°14.71 2°44.01 267.9 14.7 261 16.5
2003-09-08 07:34:41 51°14.71 2°43.97 268.3 14.7 263 17.1
2003-09-08 07:34:45 51°14.71 2°43.95 268.5 14.7 262 17
2003-09-08 07:34:51 51°14.71 2°43.91 268.5 14.7 262 16.8
2003-09-08 07:34:55 51°14.7 2°43.88 268.4 14.7 262 17.1
2003-09-08 07:35:01 51°14.7 2°43.85 268 14.7 262 17.2
2003-09-08 07:35:07 51°14.7 2°43.81 267.6 14.7 261 17.3
2003-09-08 07:35:11 51°14.69 2°43.78 267.6 14.7 262 17.4
2003-09-08 07:35:17 51°14.69 2°43.74 267.7 14.7 262 17.5
2003-09-08 07:35:21 51°14.69 2°43.72 268 14.7 262 17.5
2003-09-08 07:35:27 51°14.68 2°43.68 268.5 14.8 262 17.3
2003-09-08 07:35:31 51°14.68 2°43.65 268.9 14.8 263 17.5
2003-09-08 07:35:35 51°14.68 2°43.63 268.7 14.7 262 17.7
2003-09-08 07:35:41 51°14.68 2°43.59 268.5 14.8 262 17.8
2003-09-08 07:35:47 51°14.67 2°43.55 268.3 14.7 262 17.8
2003-09-08 07:35:51 51°14.67 2°43.52 268 14.7 262 17.9
2003-09-08 07:35:55 51°14.67 2°43.5 267.7 14.8 261 17.8
2003-09-08 07:36:01 51°14.67 2°43.46 267.7 14.7 262 18
2003-09-08 07:36:07 51°14.66 2°43.42 268.1 14.7 262 18.2
2003-09-08 07:36:11 51°14.66 2°43.39 268.5 14.7 262 18.1
2003-09-08 07:36:15 51°14.66 2°43.37 268.7 14.6 262 17.9
2003-09-08 07:36:21 51°14.65 2°43.33 268.6 14.7 262 17.9
2003-09-08 07:36:27 51°14.65 2°43.29 268.3 14.7 262 18.1
2003-09-08 07:36:31 51°14.65 2°43.27 268.1 14.7 262 18.2
2003-09-08 07:36:35 51°14.65 2°43.24 268.4 14.6 262 18.2
2003-09-08 07:36:41 51°14.64 2°43.2 268.7 14.6 263 18.4
2003-09-08 07:36:47 51°14.64 2°43.16 269.1 14.6 263 18.6
2003-09-08 07:36:51 51°14.64 2°43.14 269.1 14.6 263 18.4
2003-09-08 07:36:55 51°14.64 2°43.11 268.9 14.6 262 18.6
2003-09-08 07:37:01 51°14.63 2°43.07 268.2 14.5 262 18.4
2003-09-08 07:37:07 51°14.63 2°43.04 268.1 14.5 262 18.3
2003-09-08 07:37:11 51°14.63 2°43.01 268.2 14.5 262 18.4
2003-09-08 07:37:15 51°14.62 2°42.98 268.4 14.5 262 18.4
2003-09-08 07:37:21 51°14.62 2°42.95 268.4 14.4 262 18.4
2003-09-08 07:37:27 51°14.62 2°42.91 268 14.5 261 18.3
2003-09-08 07:37:31 51°14.62 2°42.88 267.9 14.5 261 18.4
2003-09-08 07:37:37 51°14.61 2°42.85 267.8 14.4 261 18.3
2003-09-08 07:37:41 51°14.61 2°42.82 267.9 14.4 262 18.2
2003-09-08 07:37:47 51°14.61 2°42.78 268 14.4 262 18
2003-09-08 07:37:51 51°14.6 2°42.76 268.1 14.4 262 18.1
2003-09-08 07:37:55 51°14.6 2°42.73 268.1 14.4 262 18.3
2003-09-08 07:38:01 51°14.6 2°42.69 268.3 14.4 262 18.1
2003-09-08 07:38:07 51°14.59 2°42.66 268.3 14.4 262 18
2003-09-08 07:38:11 51°14.59 2°42.63 268.3 14.4 262 18.1
2003-09-08 07:38:15 51°14.59 2°42.61 268.5 14.4 262 17.8
2003-09-08 07:38:21 51°14.59 2°42.57 268.6 14.4 262 17.5
2003-09-08 07:38:25 51°14.59 2°42.54 269 14.4 262 16.7
2003-09-08 07:38:31 51°14.58 2°42.51 269 14.3 262 16.9
2003-09-08 07:38:35 51°14.58 2°42.48 268.6 14.4 261 17.2
2003-09-08 07:38:41 51°14.58 2°42.44 268 14.4 261 16.9
2003-09-08 07:38:47 51°14.57 2°42.4 267.9 14.3 261 16.9
2003-09-08 07:38:51 51°14.57 2°42.38 267.9 14.3 262 16.8
2003-09-08 07:38:55 51°14.57 2°42.35 268.2 14.3 262 16.7
2003-09-08 07:39:01 51°14.57 2°42.32 268.3 14.3 262 16.6
2003-09-08 07:39:07 51°14.56 2°42.28 268.4 14.3 262 16.7
2003-09-08 07:39:11 51°14.56 2°42.25 268.5 14.3 262 16.3
2003-09-08 07:39:15 51°14.56 2°42.23 268.7 14.3 263 16.2
2003-09-08 07:39:21 51°14.55 2°42.19 269 14.3 262 16
2003-09-08 07:39:25 51°14.55 2°42.17 269 14.3 263 15.8
2003-09-08 07:39:31 51°14.55 2°42.13 269 14.3 262 15.7
2003-09-08 07:39:35 51°14.55 2°42.1 268.7 14.3 262 15.5
2003-09-08 07:39:41 51°14.54 2°42.07 268.6 14.2 262 14.3
2003-09-08 07:39:47 51°14.54 2°42.03 268.4 14.2 262 14.7
2003-09-08 07:39:51 51°14.54 2°42 268.4 14.2 262 14.9
2003-09-08 07:39:55 51°14.54 2°41.98 268.2 14.2 262 14.8
2003-09-08 07:40:01 51°14.53 2°41.94 268 14.2 261 14.8
2003-09-08 07:40:05 51°14.53 2°41.92 267.8 14.3 261 14.7
2003-09-08 07:40:11 51°14.53 2°41.88 267.7 14.2 261 14.6
2003-09-08 07:40:15 51°14.52 2°41.86 267.6 14.2 262 14.5
2003-09-08 07:40:21 51°14.52 2°41.82 267.9 14.2 262 14.3
2003-09-08 07:40:27 51°14.52 2°41.78 268.5 14.2 263 14.3
2003-09-08 07:40:31 51°14.52 2°41.76 269 14.2 263 14.3
2003-09-08 07:40:35 51°14.51 2°41.73 269.2 14.2 263 14.1
2003-09-08 07:40:41 51°14.51 2°41.69 269 14.2 262 14.3
2003-09-08 07:40:47 51°14.51 2°41.66 268.7 14.2 262 14.3
2003-09-08 07:40:51 51°14.51 2°41.63 268.3 14.1 262 14.2
2003-09-08 07:40:55 51°14.5 2°41.61 267.8 14.2 261 14.4
2003-09-08 07:41:01 51°14.5 2°41.57 267.6 14.2 261 14.5
2003-09-08 07:41:07 51°14.5 2°41.53 267.8 14.2 262 14.7
2003-09-08 07:41:11 51°14.49 2°41.51 268 14.2 262 14.8
2003-09-08 07:41:15 51°14.49 2°41.48 268.5 14.2 263 14.8
2003-09-08 07:41:21 51°14.49 2°41.45 268.5 14.2 262 14.8
2003-09-08 07:41:27 51°14.49 2°41.41 268.4 14.2 262 14.6
2003-09-08 07:41:31 51°14.48 2°41.38 268.5 14.2 262 14.2
2003-09-08 07:41:35 51°14.48 2°41.36 268.1 14.2 262 13.2
2003-09-08 07:41:41 51°14.48 2°41.32 268.5 14.2 263 13.1
2003-09-08 07:41:45 51°14.48 2°41.3 270.5 14.1 266 13.7
2003-09-08 07:41:51 51°14.48 2°41.26 272.5 14 267 14
2003-09-08 07:41:57 51°14.48 2°41.22 275.2 14 271 14.3
2003-09-08 07:42:01 51°14.48 2°41.2 277.3 14 271 14.5
2003-09-08 07:42:07 51°14.48 2°41.16 279.1 14.1 273 14.5
2003-09-08 07:42:11 51°14.48 2°41.14 280.4 14.1 274 14.2
2003-09-08 07:42:15 51°14.48 2°41.11 281.4 14 275 14.6
2003-09-08 07:42:21 51°14.48 2°41.07 281.6 14 275 14.4
2003-09-08 07:42:27 51°14.48 2°41.04 281.6 14 275 14.2
2003-09-08 07:42:31 51°14.49 2°41.01 281.6 14 275 14.3
2003-09-08 07:42:35 51°14.49 2°40.99 281.4 14 275 14.2
2003-09-08 07:42:41 51°14.49 2°40.95 281.2 14 274 14.1
2003-09-08 07:42:47 51°14.49 2°40.91 281.2 14 275 14.2
2003-09-08 07:42:51 51°14.49 2°40.89 281.2 14 274 14
2003-09-08 07:42:55 51°14.49 2°40.86 282.2 14 277 14
2003-09-08 07:43:01 51°14.5 2°40.83 283.2 14 277 13.9
2003-09-08 07:43:07 51°14.5 2°40.79 283.5 14 278 13.9
2003-09-08 07:43:11 51°14.5 2°40.77 284.5 14 278 13.8
2003-09-08 07:43:15 51°14.5 2°40.74 286.6 13.9 281 13.8
2003-09-08 07:43:21 51°14.51 2°40.71 288.6 13.9 282 13.6
2003-09-08 07:43:25 51°14.51 2°40.68 290.3 13.8 285 13.6
2003-09-08 07:43:31 51°14.52 2°40.65 291.5 13.8 285 13.8
2003-09-08 07:43:35 51°14.52 2°40.62 292.6 13.8 286 14
2003-09-08 07:43:41 51°14.53 2°40.59 293.2 13.9 286 13.9
2003-09-08 07:43:47 51°14.54 2°40.55 294.2 13.8 289 14
2003-09-08 07:43:51 51°14.54 2°40.53 295.5 13.8 289 14
2003-09-08 07:43:55 51°14.55 2°40.51 296.3 13.8 290 13.8
2003-09-08 07:44:01 51°14.56 2°40.47 296.8 13.8 290 13.8
2003-09-08 07:44:07 51°14.56 2°40.44 297 13.8 291 13.6
2003-09-08 07:44:11 51°14.57 2°40.41 297.3 13.8 291 13.3
2003-09-08 07:44:15 51°14.57 2°40.39 298.5 13.7 293 13.3
2003-09-08 07:44:21 51°14.58 2°40.36 300.8 13.7 295 13.2
2003-09-08 07:44:27 51°14.59 2°40.33 302.6 13.7 297 13
2003-09-08 07:44:31 51°14.6 2°40.31 304.1 13.7 298 13.1
2003-09-08 07:44:35 51°14.61 2°40.28 304.5 13.6 297 13.2
2003-09-08 07:44:41 51°14.62 2°40.25 305.3 13.7 299 13.6
2003-09-08 07:44:47 51°14.63 2°40.22 307 13.6 301 13.5
2003-09-08 07:44:51 51°14.64 2°40.2 308.8 13.6 302 13.4
2003-09-08 07:44:55 51°14.65 2°40.18 310.2 13.7 304 13.6
2003-09-08 07:45:01 51°14.66 2°40.15 311.8 13.6 305 13.7
2003-09-08 07:45:07 51°14.67 2°40.12 312.3 13.6 306 13.8
2003-09-08 07:45:11 51°14.68 2°40.1 313 13.6 306 13.5
2003-09-08 07:45:15 51°14.69 2°40.08 314.5 13.6 308 13.5
2003-09-08 07:45:21 51°14.71 2°40.06 316.6 13.6 310 14
2003-09-08 07:45:27 51°14.72 2°40.03 317.9 13.5 311 14
2003-09-08 07:45:31 51°14.73 2°40.01 318.6 13.5 311 14.1
2003-09-08 07:45:37 51°14.75 2°39.98 319.1 13.5 312 14.3
2003-09-08 07:45:41 51°14.76 2°39.97 319.3 13.6 312 14.6
2003-09-08 07:45:45 51°14.77 2°39.95 319.5 13.6 312 14.5
2003-09-08 07:45:51 51°14.78 2°39.92 319.6 13.6 313 14.7
2003-09-08 07:45:57 51°14.8 2°39.9 320.3 13.6 314 15.2
2003-09-08 07:46:01 51°14.81 2°39.88 323.1 13.5 318 14.9
2003-09-08 07:46:07 51°14.83 2°39.86 326.4 13.5 320 14.9
2003-09-08 07:46:11 51°14.84 2°39.84 329 13.4 323 15
2003-09-08 07:46:15 51°14.85 2°39.83 330.9 13.4 324 14.8
2003-09-08 07:46:21 51°14.87 2°39.81 332.6 13.4 325 14.7
2003-09-08 07:46:27 51°14.89 2°39.79 333.1 13.4 325 14.7
2003-09-08 07:46:31 51°14.9 2°39.78 333.8 13.4 326 15.1
2003-09-08 07:46:35 51°14.91 2°39.76 334.2 13.4 326 14.8
2003-09-08 07:46:41 51°14.93 2°39.74 334.2 13.4 326 14.7
2003-09-08 07:46:47 51°14.95 2°39.72 334.4 13.4 326 15.7
2003-09-08 07:46:51 51°14.96 2°39.71 334.4 13.4 327 15.1
2003-09-08 07:46:55 51°14.97 2°39.7 334.7 13.4 327 16.1
2003-09-08 07:47:01 51°14.99 2°39.68 337.6 13.3 331 15.7
2003-09-08 07:47:07 51°15.01 2°39.66 341.1 13.2 335 16.1
2003-09-08 07:47:11 51°15.03 2°39.66 345.2 13.1 339 16.7
2003-09-08 07:47:17 51°15.05 2°39.65 349.6 13 343 16.9
2003-09-08 07:47:21 51°15.06 2°39.64 352.9 13 346 16.6
2003-09-08 07:47:27 51°15.08 2°39.63 355.5 13 349 16.5
2003-09-08 07:47:31 51°15.1 2°39.63 357.4 12.9 351 17.1
2003-09-08 07:47:35 51°15.11 2°39.63 359 12.9 352 17.1
2003-09-08 07:47:41 51°15.13 2°39.62 0.4 12.9 353 17.5
2003-09-08 07:47:47 51°15.15 2°39.62 2.2 12.9 356 17.1
2003-09-08 07:47:51 51°15.17 2°39.62 3.9 12.9 357 17.3
2003-09-08 07:47:55 51°15.18 2°39.62 5 12.9 358 17.2
2003-09-08 07:48:01 51°15.2 2°39.62 5.8 12.9 358 17.9
2003-09-08 07:48:05 51°15.22 2°39.62 6.5 12.9 359 17.4
2003-09-08 07:48:11 51°15.24 2°39.62 7.6 12.9   17.6
2003-09-08 07:48:15 51°15.25 2°39.62 8.4 12.9 2 17.9
2003-09-08 07:48:21 51°15.28 2°39.62 9.2 12.9 2 18.2
2003-09-08 07:48:27 51°15.3 2°39.62 9.4 12.9 2 18.1
2003-09-08 07:48:31 51°15.31 2°39.62 9.4 12.9 2 18.6
2003-09-08 07:48:35 51°15.33 2°39.62 9.4 12.9 2 18.7
2003-09-08 07:48:41 51°15.35 2°39.62 9.3 12.9 1 18.4
2003-09-08 07:48:45 51°15.36 2°39.62 8.9 12.9 1 18.7
2003-09-08 07:48:51 51°15.38 2°39.62 9 12.9 2 18.7
2003-09-08 07:48:55 51°15.4 2°39.62 10.1 12.8 3 19.1
2003-09-08 07:49:01 51°15.42 2°39.63 11.4 12.8 5 19.1
2003-09-08 07:49:07 51°15.44 2°39.63 12.3 12.8 5 18.9
2003-09-08 07:49:11 51°15.45 2°39.63 13 12.8 6 19.4
2003-09-08 07:49:15 51°15.47 2°39.63 13.4 12.8 6 19.4
2003-09-08 07:49:21 51°15.49 2°39.64 13.6 12.8 6 19.6
2003-09-08 07:49:27 51°15.51 2°39.64 13.7 12.8 6 19.3
2003-09-08 07:49:31 51°15.52 2°39.64 13.7 12.8 6 19.6
2003-09-08 07:49:35 51°15.54 2°39.65 13.3 12.8 6 19.8
2003-09-08 07:49:41 51°15.56 2°39.65 13.3 12.8 6 19.7
2003-09-08 07:49:47 51°15.58 2°39.65 13.4 12.8 6 19.8
2003-09-08 07:49:51 51°15.6 2°39.66 13.6 12.8 7 19.9
2003-09-08 07:49:55 51°15.61 2°39.66 14.1 12.8 7 20
2003-09-08 07:50:01 51°15.63 2°39.66 15.8 12.8 10 19.7
2003-09-08 07:50:07 51°15.65 2°39.67 17.2 12.8 10 20
2003-09-08 07:50:11 51°15.66 2°39.67 18 12.8 12 20
2003-09-08 07:50:17 51°15.69 2°39.68 18.8 12.7 12 20.2
2003-09-08 07:50:21 51°15.7 2°39.69 19.5 12.7 13 20.3
2003-09-08 07:50:27 51°15.72 2°39.69 19.8 12.8 13 20.4
2003-09-08 07:50:31 51°15.73 2°39.7 20 12.8 13 20.3
2003-09-08 07:50:35 51°15.75 2°39.71 19.9 12.7 13 20.3
2003-09-08 07:50:41 51°15.77 2°39.71 19.5 12.8 12 20.4
2003-09-08 07:50:47 51°15.79 2°39.72 19.3 12.8 12 20.4
2003-09-08 07:50:51 51°15.8 2°39.72 19.1 12.8 12 20.3
2003-09-08 07:50:55 51°15.82 2°39.73 18.9 12.8 12 20.2
2003-09-08 07:51:01 51°15.84 2°39.74 18.9 12.8 12 20.6
2003-09-08 07:51:07 51°15.86 2°39.74 18.8 12.8 12 20.6
2003-09-08 07:51:11 51°15.87 2°39.75 18.8 12.8 11 20.6
2003-09-08 07:51:15 51°15.89 2°39.75 18.8 12.8 12 20.7
2003-09-08 07:51:21 51°15.91 2°39.76 19.1 12.9 12 20.6
2003-09-08 07:51:27 51°15.93 2°39.77 19.4 12.8 13 20.7
2003-09-08 07:51:31 51°15.94 2°39.77 19.5 12.8 12 20.8
2003-09-08 07:51:35 51°15.96 2°39.78 19.6 12.8 13 20.9
2003-09-08 07:51:41 51°15.98 2°39.78 19.6 12.9 12 20.9
2003-09-08 07:51:47 51°16 2°39.79 19.6 12.8 13 20.8
2003-09-08 07:51:51 51°16.01 2°39.8 19.6 12.8 12 21
2003-09-08 07:51:55 51°16.03 2°39.8 19.5 12.9 13 21.1
2003-09-08 07:52:01 51°16.05 2°39.81 19.5 12.8 12 21.2
2003-09-08 07:52:05 51°16.06 2°39.81 19.5 12.8 12 21.2
2003-09-08 07:52:11 51°16.08 2°39.82 19.2 12.8 12 21.1
2003-09-08 07:52:15 51°16.1 2°39.83 19 12.8 12 21.2
2003-09-08 07:52:21 51°16.12 2°39.83 18.8 12.8 11 21.4
2003-09-08 07:52:27 51°16.14 2°39.84 18.8 12.8 12 21.4
2003-09-08 07:52:31 51°16.15 2°39.84 18.8 12.8 12 21.4
2003-09-08 07:52:35 51°16.17 2°39.85 19 12.8 12 21.4
2003-09-08 07:52:41 51°16.19 2°39.86 19.2 12.8 12 21.4
2003-09-08 07:52:47 51°16.21 2°39.86 19.3 12.8 12 21.5
2003-09-08 07:52:51 51°16.22 2°39.87 19.1 12.8 12 21.4
2003-09-08 07:52:55 51°16.24 2°39.87 19.2 12.9 12 21.5
2003-09-08 07:53:01 51°16.26 2°39.88 19.1 12.9 12 21.5
2003-09-08 07:53:07 51°16.28 2°39.89 19.1 12.9 12 21.6
2003-09-08 07:53:11 51°16.29 2°39.89 18.8 12.9 11 21.6
2003-09-08 07:53:15 51°16.31 2°39.9 18.9 12.8 12 21.6
2003-09-08 07:53:21 51°16.33 2°39.9 19 12.9 12 21.9
2003-09-08 07:53:27 51°16.35 2°39.91 19 12.9 12 21.6
2003-09-08 07:53:31 51°16.36 2°39.91 19 12.9 12 21.6
2003-09-08 07:53:35 51°16.38 2°39.92 18.9 12.9 12 21.9
2003-09-08 07:53:41 51°16.4 2°39.93 18.8 12.9 11 21.7
2003-09-08 07:53:47 51°16.42 2°39.93 18.8 12.9 12 21.9
2003-09-08 07:53:51 51°16.43 2°39.94 18.7 12.8 11 21.5
2003-09-08 07:53:55 51°16.45 2°39.94 18.7 12.8 12 22
2003-09-08 07:54:01 51°16.47 2°39.95 18.5 12.9 11 21.9
2003-09-08 07:54:07 51°16.49 2°39.95 18.7 12.8 12 21.6
2003-09-08 07:54:11 51°16.5 2°39.96 19.1 12.9 12 21.7
2003-09-08 07:54:17 51°16.52 2°39.97 19.3 12.8 12 21.7
2003-09-08 07:54:21 51°16.54 2°39.97 19.1 12.8 12 21.6
2003-09-08 07:54:25 51°16.55 2°39.98 19.1 12.8 12 21.8
2003-09-08 07:54:31 51°16.57 2°39.98 19 12.8 12 21.8
2003-09-08 07:54:35 51°16.59 2°39.99 19 12.8 12 21.5
2003-09-08 07:54:41 51°16.61 2°39.99 18.9 12.8 12 21.5
2003-09-08 07:54:47 51°16.63 2°40 19.1 12.8 13 21.9
2003-09-08 07:54:51 51°16.64 2°40.01 19.4 12.8 13 21.3
2003-09-08 07:54:55 51°16.65 2°40.01 19.9 12.8 14 21.4
2003-09-08 07:55:01 51°16.68 2°40.02 20.9 12.8 15 21.6
2003-09-08 07:55:07 51°16.7 2°40.03 21.8 12.7 16 21.5
2003-09-08 07:55:11 51°16.71 2°40.04 22.5 12.7 17 21.4
2003-09-08 07:55:15 51°16.72 2°40.04 22.9 12.7 17 21.4
2003-09-08 07:55:21 51°16.74 2°40.05 22.7 12.7 16 21.3
2003-09-08 07:55:27 51°16.76 2°40.06 22.1 12.8 16 21.4
2003-09-08 07:55:31 51°16.78 2°40.07 22.2 12.8 16 20.9
2003-09-08 07:55:35 51°16.79 2°40.07 22.4 12.8 16 21.3
2003-09-08 07:55:41 51°16.81 2°40.08 22.4 12.7 16 20.9
2003-09-08 07:55:47 51°16.83 2°40.09 22.6 12.7 17 21.2
2003-09-08 07:55:51 51°16.85 2°40.1 22.6 12.8 16 20.7
2003-09-08 07:55:55 51°16.86 2°40.11 22.6 12.8 17 20.9
2003-09-08 07:56:01 51°16.88 2°40.12 23.1 12.8 17 20.9
2003-09-08 07:56:07 51°16.9 2°40.13 23.6 12.8 18 20.7
2003-09-08 07:56:11 51°16.91 2°40.13 24.2 12.7 19 20.7
2003-09-08 07:56:15 51°16.93 2°40.14 24.8 12.8 20 20.6
2003-09-08 07:56:21 51°16.95 2°40.15 25.4 12.8 20 20.4
2003-09-08 07:56:27 51°16.97 2°40.17 25.6 12.8 20 20.6
2003-09-08 07:56:31 51°16.98 2°40.17 25.4 12.4 20 20.4
2003-09-08 07:56:35 51°16.99 2°40.18 25.3 11.2 20 20.6
2003-09-08 07:56:41 51°17.01 2°40.19 24.8 10.5 19 20.8
2003-09-08 07:56:45 51°17.02 2°40.19 24.2 9.5 18 20
2003-09-08 07:56:51 51°17.03 2°40.2 23.5 9 18 20
2003-09-08 07:56:55 51°17.04 2°40.2 22.1 8.2 15 20.1
2003-09-08 07:57:01 51°17.05 2°40.21 20.3 7.7 14 20.1
2003-09-08 07:57:07 51°17.07 2°40.21 18.6 7.1 13 20
2003-09-08 07:57:11 51°17.07 2°40.22 17.6 6.7 11 20.4
2003-09-08 07:57:15 51°17.08 2°40.22 16.9 6.3 11 19.8
2003-09-08 07:57:21 51°17.09 2°40.22 16.7 6 10 20.2
2003-09-08 07:57:27 51°17.1 2°40.22 16.6 5.6 10 19.7
2003-09-08 07:57:31 51°17.1 2°40.22 16.4 5.4 9 20.1
2003-09-08 07:57:35 51°17.11 2°40.23 16.4 5.1 10 19.6
2003-09-08 07:57:41 51°17.12 2°40.23 16.9 4.9 10 20
2003-09-08 07:57:47 51°17.13 2°40.23 17.6 4.7 12 19.8
2003-09-08 07:57:51 51°17.13 2°40.23 18.6 4.5 12 19.8
2003-09-08 07:57:55 51°17.14 2°40.23 19.8 4.3 14 19.5
2003-09-08 07:58:01 51°17.14 2°40.24 21.2 4.1 15 18.3
2003-09-08 07:58:07 51°17.15 2°40.24 23 3.9 18 18.2
2003-09-08 07:58:11 51°17.15 2°40.24 25 3.8 20 18.5
2003-09-08 07:58:15 51°17.16 2°40.25 27.1 3.6 23 18.8
2003-09-08 07:58:21 51°17.16 2°40.25 29.3 3.5 24 18.8
2003-09-08 07:58:27 51°17.17 2°40.25 31.1 3.4 26 18.8
2003-09-08 07:58:31 51°17.17 2°40.26 32.6 3.3 28 19.2
2003-09-08 07:58:35 51°17.17 2°40.26 34 3.2 29 19.1
2003-09-08 07:58:41 51°17.18 2°40.26 35.3 3.1 31 19.6
2003-09-08 07:58:47 51°17.18 2°40.27 36.5 3 33 19.4
2003-09-08 07:58:51 51°17.18 2°40.27 37.7 2.9 33 19.3
2003-09-08 07:58:55 51°17.19 2°40.27 38.9 2.9 36 19.6
2003-09-08 07:59:01 51°17.19 2°40.28 39.9 2.9 36 19.8
2003-09-08 07:59:07 51°17.19 2°40.28 40.8 2.9 39 19.6
2003-09-08 07:59:11 51°17.2 2°40.29 41.6 2.9 39 19.6
2003-09-08 07:59:15 51°17.2 2°40.29 42.4 2.8 41 19.9
2003-09-08 07:59:21 51°17.2 2°40.29 42.9 2.8 41 19.7
2003-09-08 07:59:27 51°17.21 2°40.3 43.4 2.8 42 19.6
2003-09-08 07:59:31 51°17.21 2°40.3 43.6 2.8 43 20
2003-09-08 07:59:35 51°17.21 2°40.31 44 2.8 43 19.8
2003-09-08 07:59:41 51°17.21 2°40.31 44.2 2.8 44 20.1
2003-09-08 07:59:47 51°17.22 2°40.32 44.4 2.8 43 20
2003-09-08 07:59:51 51°17.22 2°40.32 44.6 2.8 45 19.8
2003-09-08 07:59:55 51°17.22 2°40.32 44.7 2.8 45 20
2003-09-08 08:00:01 51°17.23 2°40.33 44.5 2.8 43 19.8
2003-09-08 08:00:07 51°17.23 2°40.33 44.3 2.8 43 20.1
2003-09-08 08:00:11 51°17.23 2°40.34 43.8 2.8 42 20
2003-09-08 08:00:15 51°17.23 2°40.34 43.4 2.8 43 20.4
2003-09-08 08:00:21 51°17.24 2°40.34 42.8 2.8 40 20
2003-09-08 08:00:27 51°17.24 2°40.35 42.3 3.1 39 20.1
2003-09-08 08:00:31 51°17.24 2°40.35 41.5 3.1 39 20.5
2003-09-08 08:00:35 51°17.25 2°40.36 40.7 3 38 20.1
2003-09-08 08:00:41 51°17.25 2°40.36 40.2 3 39 20.6
2003-09-08 08:00:47 51°17.25 2°40.37 39.5 3 36 20.1
2003-09-08 08:00:51 51°17.26 2°40.37 39 2.9 38 20.5
2003-09-08 08:00:55 51°17.26 2°40.37 38.4 2.9 36 20.4
2003-09-08 08:01:01 51°17.26 2°40.38 37.8 2.9 36 20
2003-09-08 08:01:07 51°17.27 2°40.38 37.4 2.8 35 20.4
2003-09-08 08:01:11 51°17.27 2°40.38 36.6 2.8 33 20.2
2003-09-08 08:01:17 51°17.27 2°40.39 35.5 2.7 32 20.4
2003-09-08 08:01:21 51°17.28 2°40.39 33.5 2.8 29 20.1
2003-09-08 08:01:25 51°17.28 2°40.39 31.2 2.9 27 20.4
2003-09-08 08:01:31 51°17.28 2°40.4 28.5 2.8 22 20.3
2003-09-08 08:01:35 51°17.29 2°40.4 26.4 2.7 21 20.5
2003-09-08 08:01:41 51°17.29 2°40.4 24.6 2.7 20 20.4
2003-09-08 08:01:47 51°17.29 2°40.4 23.2 2.5 17 20.1
2003-09-08 08:01:51 51°17.3 2°40.4 22 2.3 18 20.3
2003-09-08 08:01:55 51°17.3 2°40.4 20.9 1.9 14 20.4
2003-09-08 08:02:01 51°17.3 2°40.4 19.9 1.4 14 20.3
2003-09-08 08:02:07 51°17.3 2°40.4 19.1 0.6 7 20.3
2003-09-08 08:02:11 51°17.3 2°40.4 18.1 0.3 340 20.2
2003-09-08 08:02:17 51°17.3 2°40.4 17.1 0.3 354 20.2
2003-09-08 08:02:21 51°17.3 2°40.4 15.7 0.3 340 20.2
2003-09-08 08:02:27 51°17.3 2°40.4 14.1 0.4 333 20.2
2003-09-08 08:02:31 51°17.3 2°40.4 12.7 0.3 342 20.3
2003-09-08 08:02:35 51°17.3 2°40.4 11.6 0.4 330 20.1
2003-09-08 08:02:41 51°17.3 2°40.4 10.3 0.4 330 20.3
2003-09-08 08:02:45 51°17.31 2°40.4 9.4 0.4 324 20.2
2003-09-08 08:02:51 51°17.31 2°40.4 8.7 0.3 328 20.2
2003-09-08 08:02:55 51°17.31 2°40.4 8 0.4 323 20.2
2003-09-08 08:03:01 51°17.31 2°40.4 7.4 0.4 326 20.2
2003-09-08 08:03:05 51°17.31 2°40.4 6.8 0.4 319 20.3
2003-09-08 08:03:11 51°17.31 2°40.4 6.2 0.4 315 20.4
2003-09-08 08:03:15 51°17.31 2°40.4 5.6 0.4 316 20.1
2003-09-08 08:03:21 51°17.31 2°40.4 5 0.4 315 20
2003-09-08 08:03:27 51°17.31 2°40.4 4.6 0.5 308 20
2003-09-08 08:03:31 51°17.31 2°40.4 4.3 0.4 317 19.9
2003-09-08 08:03:37 51°17.31 2°40.4 3.9 0.5 313 20.1
2003-09-08 08:03:41 51°17.31 2°40.4 3.6 0.5 311 20.3
2003-09-08 08:03:45 51°17.31 2°40.39 3.1 0.4 312 20.3
2003-09-08 08:03:51 51°17.31 2°40.39 2.9 0.4 308 20.3
2003-09-08 08:03:57 51°17.31 2°40.39 2.7 0.4 311 20.2
2003-09-08 08:04:01 51°17.31 2°40.39 2.5 0.4 311 20.3
2003-09-08 08:04:07 51°17.31 2°40.39 2.3 0.5 304 20.4
2003-09-08 08:04:11 51°17.31 2°40.39 2.1 0.4 311 20.2
2003-09-08 08:04:15 51°17.31 2°40.39 2 0.4 311 20
2003-09-08 08:04:21 51°17.31 2°40.39 1.7 0.5 308 20
2003-09-08 08:04:27 51°17.31 2°40.39 1.4 0.4 308 20.1
2003-09-08 08:04:31 51°17.31 2°40.39 1.1 0.4 307 20
2003-09-08 08:04:35 51°17.31 2°40.39 0.8 0.4 308 20
2003-09-08 08:04:41 51°17.32 2°40.39 0.5 0.4 309 19.9
2003-09-08 08:04:47 51°17.32 2°40.39 0.1 0.4 306 19.8
2003-09-08 08:04:51 51°17.32 2°40.38 359.9 0.4 304 19.7
2003-09-08 08:04:55 51°17.32 2°40.38 359.5 0.4 307 19.8
2003-09-08 08:05:01 51°17.32 2°40.38 359.2 0.4 304 19.8
2003-09-08 08:05:07 51°17.32 2°40.38 358.8 0.5 303 20
2003-09-08 08:05:11 51°17.32 2°40.38 358.4 0.4 302 20.2
2003-09-08 08:05:15 51°17.32 2°40.38 357.8 0.5 297 20
2003-09-08 08:05:21 51°17.32 2°40.38 357.4 0.5 297 20
2003-09-08 08:05:25 51°17.32 2°40.38 356.9 0.5 295 19.9
2003-09-08 08:05:31 51°17.32 2°40.38 356.3 0.4 299 19.9
2003-09-08 08:05:35 51°17.32 2°40.38 356 0.5 292 19.9
2003-09-08 08:05:41 51°17.32 2°40.38 355.6 0.5 295 19.7
2003-09-08 08:05:47 51°17.32 2°40.37 355.2 0.5 301 19.8
2003-09-08 08:05:51 51°17.32 2°40.37 354.9 0.6 314 19.6
2003-09-08 08:05:57 51°17.32 2°40.37 354.8 1.1 330 19.3
2003-09-08 08:06:01 51°17.32 2°40.37 354.5 1.6 335 19.6
2003-09-08 08:06:07 51°17.33 2°40.37 354.4 2.4 339 19.6
2003-09-08 08:06:11 51°17.33 2°40.37 354.1 2.8 341 19.6
2003-09-08 08:06:15 51°17.33 2°40.36 353.9 3.4 343 19.2
2003-09-08 08:06:21 51°17.34 2°40.36 353.9 3.8 343 19.2
2003-09-08 08:06:27 51°17.35 2°40.36 353.8 5 340 19.1
2003-09-08 08:06:31 51°17.35 2°40.35 353.6 5.9 337 19
2003-09-08 08:06:35 51°17.36 2°40.35 353.4 5 345 18.6
2003-09-08 08:06:41 51°17.37 2°40.35 354.1 5.3 347 18.3
2003-09-08 08:06:47 51°17.38 2°40.35 357.5 5.6 351 18.9
2003-09-08 08:06:51 51°17.38 2°40.35 0.3 5.8 354 18.6
2003-09-08 08:06:55 51°17.39 2°40.35 4.8 6 359 18.5
2003-09-08 08:07:01 51°17.4 2°40.35 8.8 6.2 3 18.1
2003-09-08 08:07:07 51°17.41 2°40.35 12.3 6.2 10 18
2003-09-08 08:07:11 51°17.42 2°40.36 19.1 6.2 16 17.7
2003-09-08 08:07:15 51°17.42 2°40.36 25.6 6.2 28 16.5
2003-09-08 08:07:21 51°17.43 2°40.37 34.1 6.2 33 16.8
2003-09-08 08:07:27 51°17.44 2°40.38 40.9 6.3 42 17.6
2003-09-08 08:07:31 51°17.44 2°40.39 47.9 6.3 48 18.5
2003-09-08 08:07:37 51°17.45 2°40.4 53 6.3 58 18.5
2003-09-08 08:07:41 51°17.45 2°40.41 61.3 6.3 63 19
2003-09-08 08:07:45 51°17.45 2°40.42 69.5 6.1 75 18.8
2003-09-08 08:07:51 51°17.45 2°40.44 76.5 6.1 82 19.3
2003-09-08 08:07:55 51°17.45 2°40.45 85.4 6 94 19.1
2003-09-08 08:08:01 51°17.45 2°40.47 95.8 6 101 19.7
2003-09-08 08:08:07 51°17.45 2°40.48 104.7 6 112 19.7
2003-09-08 08:08:11 51°17.45 2°40.49 113.4 6.1 117 19.7
2003-09-08 08:08:17 51°17.44 2°40.5 118.9 6.4 125 20
2003-09-08 08:08:21 51°17.44 2°40.51 123.3 6.6 126 20.3
2003-09-08 08:08:27 51°17.43 2°40.53 126.5 6.8 131 20.3
2003-09-08 08:08:31 51°17.42 2°40.54 129.8 7 132 20.7
2003-09-08 08:08:35 51°17.42 2°40.55 132.6 7 135 20.6
2003-09-08 08:08:41 51°17.41 2°40.56 133.7 6.6 136 21.1
2003-09-08 08:08:47 51°17.4 2°40.57 131.3 6 133 20.8
2003-09-08 08:08:51 51°17.4 2°40.58 129.1 5.8 132 21.3
2003-09-08 08:08:55 51°17.39 2°40.58 127.6 5.8 129 21.7
2003-09-08 08:09:01 51°17.39 2°40.6 120.7 5.7 123 21.5
2003-09-08 08:09:07 51°17.39 2°40.61 112.8 5.6 113 21.6
2003-09-08 08:09:11 51°17.38 2°40.62 105.8 5.6 107 21.8
2003-09-08 08:09:15 51°17.38 2°40.63 96.2 5.4 94 22
2003-09-08 08:09:21 51°17.38 2°40.64 84.6 5.3 86 22
2003-09-08 08:09:27 51°17.39 2°40.66 75.1 5.1 73 22
2003-09-08 08:09:31 51°17.39 2°40.67 67.4 5.1 65 22.2
2003-09-08 08:09:35 51°17.39 2°40.67 57.6 5 51 22.2
2003-09-08 08:09:41 51°17.4 2°40.68 46.3 5 41 22.2
2003-09-08 08:09:47 51°17.41 2°40.69 36.8 5.1 29 22.1
2003-09-08 08:09:51 51°17.41 2°40.69 27.1 5.1 20 22.3
2003-09-08 08:09:55 51°17.42 2°40.69 17.7 5.1 7 22
2003-09-08 08:10:01 51°17.43 2°40.69 8.3 5.2 359 21.9
2003-09-08 08:10:05 51°17.43 2°40.69 358.6 5.3 345 21.8
2003-09-08 08:10:11 51°17.44 2°40.69 349 5.3 336 21.9
2003-09-08 08:10:15 51°17.44 2°40.68 341.2 5.5 324 21.5
2003-09-08 08:10:21 51°17.45 2°40.67 331.6 5.6 316 21.7
2003-09-08 08:10:27 51°17.46 2°40.66 320.1 5.7 304 21
2003-09-08 08:10:31 51°17.46 2°40.65 310.4 5.9 297 20.5
2003-09-08 08:10:35 51°17.46 2°40.64 303.3 6.3 287 20.2
2003-09-08 08:10:41 51°17.46 2°40.62 295.4 6.6 281 20
2003-09-08 08:10:45 51°17.46 2°40.61 286.3 6.8 273 19.8
2003-09-08 08:10:51 51°17.46 2°40.59 280.2 7 268 19.9
2003-09-08 08:10:55 51°17.46 2°40.58 272.9 6.8 260 20.6
2003-09-08 08:11:01 51°17.46 2°40.56 266.2 6.4 255 20.6
2003-09-08 08:11:07 51°17.46 2°40.55 261.3 6 253 20.3
2003-09-08 08:11:11 51°17.46 2°40.54 259.4 5.7 250 19.9
2003-09-08 08:11:15 51°17.45 2°40.53 258.5 5.2 249 20.3
2003-09-08 08:11:21 51°17.45 2°40.52 256.5 4.6 245 19.8
2003-09-08 08:11:25 51°17.45 2°40.51 252.5 3.6 240 20.1
2003-09-08 08:11:31 51°17.45 2°40.5 246.8 3 235 19.9
2003-09-08 08:11:35 51°17.44 2°40.5 242 2.3 230 19.8
2003-09-08 08:11:41 51°17.44 2°40.5 240 1.8 229 20.1
2003-09-08 08:11:45 51°17.44 2°40.5 239 1 224 20.1
2003-09-08 08:11:51 51°17.44 2°40.49 237.9 0.6 206 20
2003-09-08 08:11:55 51°17.44 2°40.49 236.3 0.6 209 20
2003-09-08 08:12:01 51°17.44 2°40.49 233.9 0.6 205 19.9
2003-09-08 08:12:07 51°17.44 2°40.49 231.3 0.6 212 19.7
2003-09-08 08:12:11 51°17.44 2°40.49 228.7 0.6 209 19.6
2003-09-08 08:12:15 51°17.44 2°40.49 226.4 0.6 213 19.6
2003-09-08 08:12:21 51°17.44 2°40.49 224.6 0.6 209 19.9
2003-09-08 08:12:27 51°17.43 2°40.49 222.9 0.6 210 -999
2003-09-08 08:12:31 51°17.43 2°40.49 221.3 0.6 212 -999
2003-09-08 08:12:37 51°17.43 2°40.49 220.1 0.6 209 -999
2003-09-08 08:12:41 51°17.43 2°40.49 219.2 0.7 213 -999
2003-09-08 08:12:47 51°17.43 2°40.49 218.4 0.7 211 -999
2003-09-08 08:12:53 51°17.43 2°40.49 217.9 0.7 216 -999
2003-09-08 08:12:57 51°17.43 2°40.49 217.3 0.7 209 -999
2003-09-08 08:13:03 51°17.43 2°40.48 217.1 0.7 214 -999
2003-09-08 08:13:07 51°17.43 2°40.48 216.8 0.7 210 -999
2003-09-08 08:13:13 51°17.43 2°40.48 216.6 0.7 216 -999
2003-09-08 08:13:19 51°17.43 2°40.48 216.4 0.7 209 -999
2003-09-08 08:13:23 51°17.43 2°40.48 216.4 0.7 216 -999
2003-09-08 08:13:29 51°17.42 2°40.48 216.7 0.7 214 -999
2003-09-08 08:13:33 51°17.42 2°40.48 216.7 0.8 217 -999
2003-09-08 08:13:39 51°17.42 2°40.48 217.2 1.1 211 -999
2003-09-08 08:13:43 51°17.42 2°40.48 218.6 1.3 217 -999
2003-09-08 08:13:49 51°17.42 2°40.47 220.8 1.6 217 -999
2003-09-08 08:13:55 51°17.42 2°40.47 223.8 1.9 220 -999
2003-09-08 08:13:59 51°17.42 2°40.47 227.2 2 219 -999
2003-09-08 08:14:05 51°17.41 2°40.47 231 2.3 225 -999
2003-09-08 08:14:09 51°17.41 2°40.46 234.2 2.6 227 19.7
2003-09-08 08:14:13 51°17.41 2°40.46 238 3 233 19.6
2003-09-08 08:14:17 51°17.41 2°40.45 242.6 3.5 238 19.5
2003-09-08 08:14:21 51°17.4 2°40.45 249.7 4 244 19.6
2003-09-08 08:14:25 51°17.4 2°40.44 258.7 4.3 253 19.3
2003-09-08 08:14:31 51°17.4 2°40.43 268.4 4.6 264 19.2
2003-09-08 08:14:35 51°17.4 2°40.42 278.6 4.8 273 18.9
2003-09-08 08:14:39 51°17.4 2°40.41 288.7 5 280 18.3
2003-09-08 08:14:45 51°17.41 2°40.4 298.5 5.1 293 17.5
2003-09-08 08:14:51 51°17.41 2°40.38 308.3 5.2 304 16.9
2003-09-08 08:14:55 51°17.42 2°40.38 318 5.3 312 17.1
2003-09-08 08:14:59 51°17.42 2°40.37 327.7 5.3 324 17.8
2003-09-08 08:15:05 51°17.43 2°40.37 337.5 5.3 333 17.9
2003-09-08 08:15:11 51°17.44 2°40.36 347.4 5.4 346 17.6
2003-09-08 08:15:15 51°17.44 2°40.36 357.1 5.5 355 17.5
2003-09-08 08:15:19 51°17.45 2°40.36 4.7 5.5 7 17.5
2003-09-08 08:15:25 51°17.46 2°40.37 16.2 5.5 16 16.6
2003-09-08 08:15:31 51°17.47 2°40.37 23.9 5.6 29 16.3
2003-09-08 08:15:35 51°17.47 2°40.38 35.4 5.7 37 17.2
2003-09-08 08:15:39 51°17.48 2°40.39 44.7 5.9 49 18.3
2003-09-08 08:15:45 51°17.48 2°40.4 53.8 6.1 56 18.7
2003-09-08 08:15:51 51°17.49 2°40.41 63.1 6.3 66 18.7
2003-09-08 08:15:55 51°17.49 2°40.43 70.4 6.5 71 18.6
2003-09-08 08:15:59 51°17.49 2°40.44 72.5 6.9 71 18.4
2003-09-08 08:16:05 51°17.49 2°40.46 70.6 7.2 69 18.8
2003-09-08 08:16:11 51°17.5 2°40.47 69.5 7.6 70 18.9
2003-09-08 08:16:15 51°17.5 2°40.49 71.1 7.8 72 18.7
2003-09-08 08:16:21 51°17.5 2°40.51 73.1 8.1 75 18.8
2003-09-08 08:16:25 51°17.51 2°40.52 76.6 8.2 78 19.4
2003-09-08 08:16:29 51°17.51 2°40.54 79.6 8.4 81 19.7
2003-09-08 08:16:35 51°17.51 2°40.56 82.7 8.5 82 19.8
2003-09-08 08:16:39 51°17.51 2°40.57 82.3 8.7 80 19.8
2003-09-08 08:16:45 51°17.51 2°40.6 80 8.7 79 20.1
2003-09-08 08:16:51 51°17.52 2°40.62 79.1 8.8 78 20.9
2003-09-08 08:16:55 51°17.52 2°40.63 77.6 8.8 76 20.8
2003-09-08 08:17:01 51°17.53 2°40.66 74.1 8.2 70 19.4
2003-09-08 08:17:05 51°17.53 2°40.67 71.1 7.6 68 20.3
2003-09-08 08:17:11 51°17.53 2°40.68 66 6.7 60 20
2003-09-08 08:17:15 51°17.54 2°40.69 58.2 6.2 55 20.2
2003-09-08 08:17:21 51°17.54 2°40.7 53.2 5.8 47 20.6
2003-09-08 08:17:25 51°17.55 2°40.71 45 5.5 41 21
2003-09-08 08:17:31 51°17.56 2°40.72 37.2 4.8 32 21.4
2003-09-08 08:17:35 51°17.56 2°40.72 32.3 4.6 31 21.4
2003-09-08 08:17:41 51°17.57 2°40.73 29.9 4.1 26 21.2
2003-09-08 08:17:45 51°17.57 2°40.73 27.6 3.6 26 21.6
2003-09-08 08:17:51 51°17.58 2°40.73 25.1 2.9 19 21.2
2003-09-08 08:17:55 51°17.58 2°40.73 20 2.5 15 21.3
2003-09-08 08:18:01 51°17.58 2°40.73 16.2 2 7 21.3
2003-09-08 08:18:05 51°17.58 2°40.73 9.8 1.6 4 21.2
2003-09-08 08:18:11 51°17.58 2°40.73 3.8 1.4 352 21
2003-09-08 08:18:15 51°17.59 2°40.73 358.3 1.4 349 20.9
2003-09-08 08:18:21 51°17.59 2°40.73 354.3 1.3 340 21
2003-09-08 08:18:25 51°17.59 2°40.73 349.6 1 340 21
2003-09-08 08:18:31 51°17.59 2°40.73 346.8 0.7 314 20.9
2003-09-08 08:18:35 51°17.59 2°40.73 345.3 0.6 334 21
2003-09-08 08:18:39 51°17.59 2°40.73 344.1 0.7 314 20.9
2003-09-08 08:18:45 51°17.59 2°40.73 342.5 0.7 323 20.9
2003-09-08 08:18:51 51°17.59 2°40.73 341.3 0.8 307 20.9
2003-09-08 08:18:55 51°17.59 2°40.72 340.4 0.7 319 20.8
2003-09-08 08:18:59 51°17.59 2°40.72 339.3 0.7 305 20.8
2003-09-08 08:19:05 51°17.59 2°40.72 338.6 0.7 312 20.9